sensor_id;sensor_type;location;lat;lon;timestamp;P1;durP1;ratioP1;P2;durP2;ratioP2
32242;SDS011;18731;42.830;24.390;2023-04-03T03:05:01;2.92;;;1.83;;
32242;SDS011;18731;42.830;24.390;2023-04-03T03:07:27;3.67;;;2.58;;
32242;SDS011;18731;42.830;24.390;2023-04-03T03:09:52;5.72;;;3.80;;
32242;SDS011;18731;42.830;24.390;2023-04-03T03:12:18;7.85;;;2.80;;
32242;SDS011;18731;42.830;24.390;2023-04-03T03:14:47;3.25;;;2.50;;
32242;SDS011;18731;42.830;24.390;2023-04-03T03:17:13;3.67;;;2.70;;
32242;SDS011;18731;42.830;24.390;2023-04-03T03:19:39;4.85;;;3.30;;
32242;SDS011;18731;42.830;24.390;2023-04-03T03:22:05;2.90;;;2.13;;
32242;SDS011;18731;42.830;24.390;2023-04-03T03:24:30;3.53;;;2.67;;
32242;SDS011;18731;42.830;24.390;2023-04-03T03:26:56;5.32;;;2.75;;
32242;SDS011;18731;42.830;24.390;2023-04-03T03:29:21;5.25;;;3.40;;
32242;SDS011;18731;42.830;24.390;2023-04-03T03:31:47;4.75;;;2.42;;
32242;SDS011;18731;42.830;24.390;2023-04-03T03:34:13;4.80;;;2.92;;
32242;SDS011;18731;42.830;24.390;2023-04-03T03:36:38;4.38;;;3.08;;
32242;SDS011;18731;42.830;24.390;2023-04-03T03:39:04;8.85;;;3.60;;
32242;SDS011;18731;42.830;24.390;2023-04-03T03:41:30;4.60;;;2.83;;
32242;SDS011;18731;42.830;24.390;2023-04-03T03:43:56;18.48;;;7.72;;
32242;SDS011;18731;42.830;24.390;2023-04-03T03:46:22;12.80;;;5.97;;
32242;SDS011;18731;42.830;24.390;2023-04-03T03:48:47;10.90;;;4.70;;
32242;SDS011;18731;42.830;24.390;2023-04-03T03:51:13;9.48;;;4.72;;
32242;SDS011;18731;42.830;24.390;2023-04-03T03:53:39;22.20;;;7.43;;
32242;SDS011;18731;42.830;24.390;2023-04-03T03:56:05;20.85;;;8.50;;
32242;SDS011;18731;42.830;24.390;2023-04-03T03:58:31;17.13;;;6.45;;
32242;SDS011;18731;42.830;24.390;2023-04-03T04:01:00;10.13;;;4.53;;
32242;SDS011;18731;42.830;24.390;2023-04-03T04:03:27;12.95;;;4.43;;
32242;SDS011;18731;42.830;24.390;2023-04-03T04:05:53;11.93;;;4.47;;
32242;SDS011;18731;42.830;24.390;2023-04-03T04:08:19;11.02;;;5.72;;
32242;SDS011;18731;42.830;24.390;2023-04-03T04:10:44;21.77;;;8.15;;
32242;SDS011;18731;42.830;24.390;2023-04-03T04:13:10;23.13;;;5.95;;
32242;SDS011;18731;42.830;24.390;2023-04-03T04:15:36;13.32;;;5.55;;
32242;SDS011;18731;42.830;24.390;2023-04-03T04:18:01;20.02;;;9.98;;
32242;SDS011;18731;42.830;24.390;2023-04-03T04:20:27;26.45;;;14.48;;
32242;SDS011;18731;42.830;24.390;2023-04-03T04:22:53;28.73;;;15.43;;
32242;SDS011;18731;42.830;24.390;2023-04-03T04:25:18;19.95;;;12.50;;
32242;SDS011;18731;42.830;24.390;2023-04-03T04:27:44;19.35;;;13.77;;
32242;SDS011;18731;42.830;24.390;2023-04-03T04:30:10;17.60;;;12.48;;
32242;SDS011;18731;42.830;24.390;2023-04-03T04:32:36;10.80;;;8.23;;
32242;SDS011;18731;42.830;24.390;2023-04-03T04:35:02;20.10;;;7.38;;
32242;SDS011;18731;42.830;24.390;2023-04-03T04:37:29;17.88;;;9.52;;
32242;SDS011;18731;42.830;24.390;2023-04-03T04:39:55;30.15;;;16.65;;
32242;SDS011;18731;42.830;24.390;2023-04-03T04:42:21;28.63;;;14.00;;
32242;SDS011;18731;42.830;24.390;2023-04-03T04:44:47;30.85;;;17.10;;
32242;SDS011;18731;42.830;24.390;2023-04-03T04:47:12;33.33;;;18.45;;
32242;SDS011;18731;42.830;24.390;2023-04-03T04:49:38;29.48;;;14.15;;
32242;SDS011;18731;42.830;24.390;2023-04-03T04:52:04;32.20;;;14.55;;
32242;SDS011;18731;42.830;24.390;2023-04-03T04:54:30;27.13;;;12.77;;
32242;SDS011;18731;42.830;24.390;2023-04-03T04:56:55;15.20;;;8.13;;
32242;SDS011;18731;42.830;24.390;2023-04-03T04:59:21;16.50;;;6.72;;
32242;SDS011;18731;42.830;24.390;2023-04-03T05:01:47;12.18;;;7.47;;
32242;SDS011;18731;42.830;24.390;2023-04-03T05:04:12;19.80;;;11.45;;
32242;SDS011;18731;42.830;24.390;2023-04-03T05:06:38;20.05;;;9.35;;
32242;SDS011;18731;42.830;24.390;2023-04-03T05:09:04;44.88;;;16.60;;
32242;SDS011;18731;42.830;24.390;2023-04-03T05:11:30;34.28;;;14.85;;
32242;SDS011;18731;42.830;24.390;2023-04-03T05:13:56;34.10;;;18.05;;
32242;SDS011;18731;42.830;24.390;2023-04-03T05:16:21;39.75;;;18.27;;
32242;SDS011;18731;42.830;24.390;2023-04-03T05:18:47;13.27;;;7.60;;
32242;SDS011;18731;42.830;24.390;2023-04-03T05:21:12;11.27;;;5.93;;
32242;SDS011;18731;42.830;24.390;2023-04-03T05:23:38;8.50;;;5.20;;
32242;SDS011;18731;42.830;24.390;2023-04-03T05:26:04;17.10;;;8.40;;
32242;SDS011;18731;42.830;24.390;2023-04-03T05:28:30;19.27;;;8.82;;
32242;SDS011;18731;42.830;24.390;2023-04-03T05:30:57;4.88;;;3.05;;
32242;SDS011;18731;42.830;24.390;2023-04-03T05:33:23;3.60;;;2.42;;
32242;SDS011;18731;42.830;24.390;2023-04-03T05:35:51;3.35;;;2.25;;
32242;SDS011;18731;42.830;24.390;2023-04-03T05:38:18;2.15;;;1.92;;
32242;SDS011;18731;42.830;24.390;2023-04-03T05:40:44;4.22;;;1.90;;
32242;SDS011;18731;42.830;24.390;2023-04-03T05:43:09;5.43;;;2.20;;
32242;SDS011;18731;42.830;24.390;2023-04-03T05:45:35;2.88;;;1.77;;
32242;SDS011;18731;42.830;24.390;2023-04-03T05:48:01;7.50;;;4.25;;
32242;SDS011;18731;42.830;24.390;2023-04-03T05:50:27;9.25;;;5.40;;
32242;SDS011;18731;42.830;24.390;2023-04-03T05:52:53;14.30;;;8.25;;
32242;SDS011;18731;42.830;24.390;2023-04-03T05:55:22;16.73;;;9.93;;
32242;SDS011;18731;42.830;24.390;2023-04-03T05:57:47;26.95;;;15.80;;
32242;SDS011;18731;42.830;24.390;2023-04-03T06:00:13;30.27;;;17.73;;
32242;SDS011;18731;42.830;24.390;2023-04-03T06:02:42;17.08;;;11.27;;
32242;SDS011;18731;42.830;24.390;2023-04-03T06:05:09;15.43;;;7.20;;
32242;SDS011;18731;42.830;24.390;2023-04-03T06:07:36;11.13;;;5.18;;
32242;SDS011;18731;42.830;24.390;2023-04-03T06:10:02;8.52;;;5.57;;
32242;SDS011;18731;42.830;24.390;2023-04-03T06:12:29;8.20;;;5.47;;
32242;SDS011;18731;42.830;24.390;2023-04-03T06:14:55;7.25;;;4.47;;
32242;SDS011;18731;42.830;24.390;2023-04-03T06:17:20;11.65;;;6.60;;
32242;SDS011;18731;42.830;24.390;2023-04-03T06:19:46;12.05;;;6.70;;
32242;SDS011;18731;42.830;24.390;2023-04-03T06:22:13;16.98;;;10.45;;
32242;SDS011;18731;42.830;24.390;2023-04-03T06:24:39;14.80;;;8.32;;
32242;SDS011;18731;42.830;24.390;2023-04-03T06:27:05;16.02;;;8.77;;
32242;SDS011;18731;42.830;24.390;2023-04-03T06:29:31;11.90;;;7.00;;
32242;SDS011;18731;42.830;24.390;2023-04-03T06:31:56;8.43;;;4.28;;
32242;SDS011;18731;42.830;24.390;2023-04-03T06:34:22;7.20;;;3.75;;
32242;SDS011;18731;42.830;24.390;2023-04-03T06:36:48;4.85;;;3.58;;
32242;SDS011;18731;42.830;24.390;2023-04-03T06:39:17;9.70;;;4.95;;
32242;SDS011;18731;42.830;24.390;2023-04-03T06:41:50;12.52;;;5.82;;
32242;SDS011;18731;42.830;24.390;2023-04-03T06:44:16;8.52;;;4.10;;
32242;SDS011;18731;42.830;24.390;2023-04-03T06:46:42;5.30;;;3.63;;
32242;SDS011;18731;42.830;24.390;2023-04-03T06:49:09;8.85;;;3.97;;
32242;SDS011;18731;42.830;24.390;2023-04-03T06:51:36;7.07;;;3.20;;
32242;SDS011;18731;42.830;24.390;2023-04-03T06:54:02;3.40;;;2.65;;
32242;SDS011;18731;42.830;24.390;2023-04-03T06:56:29;7.55;;;3.90;;
32242;SDS011;18731;42.830;24.390;2023-04-03T06:58:55;7.28;;;4.00;;
32242;SDS011;18731;42.830;24.390;2023-04-03T07:01:23;7.88;;;4.20;;
32242;SDS011;18731;42.830;24.390;2023-04-03T07:03:51;7.97;;;3.35;;
32242;SDS011;18731;42.830;24.390;2023-04-03T07:06:17;4.13;;;2.55;;
32242;SDS011;18731;42.830;24.390;2023-04-03T07:08:44;4.30;;;2.58;;
32242;SDS011;18731;42.830;24.390;2023-04-03T07:11:12;2.70;;;1.70;;
32242;SDS011;18731;42.830;24.390;2023-04-03T07:13:38;4.82;;;2.17;;
32242;SDS011;18731;42.830;24.390;2023-04-03T07:16:05;1.65;;;1.48;;
32242;SDS011;18731;42.830;24.390;2023-04-03T07:18:32;2.78;;;1.67;;
32242;SDS011;18731;42.830;24.390;2023-04-03T07:20:58;3.53;;;2.22;;
32242;SDS011;18731;42.830;24.390;2023-04-03T07:23:24;4.07;;;2.50;;
32242;SDS011;18731;42.830;24.390;2023-04-03T07:25:50;8.27;;;4.40;;
32242;SDS011;18731;42.830;24.390;2023-04-03T07:28:17;13.77;;;5.90;;
32242;SDS011;18731;42.830;24.390;2023-04-03T07:30:48;5.38;;;3.72;;
32242;SDS011;18731;42.830;24.390;2023-04-03T07:33:17;5.30;;;3.42;;
32242;SDS011;18731;42.830;24.390;2023-04-03T07:35:43;4.40;;;2.55;;
32242;SDS011;18731;42.830;24.390;2023-04-03T07:38:09;4.55;;;2.50;;
32242;SDS011;18731;42.830;24.390;2023-04-03T07:40:35;10.13;;;4.30;;
32242;SDS011;18731;42.830;24.390;2023-04-03T07:43:02;8.45;;;3.72;;
32242;SDS011;18731;42.830;24.390;2023-04-03T07:45:28;9.35;;;5.30;;
32242;SDS011;18731;42.830;24.390;2023-04-03T07:47:54;7.13;;;4.00;;
32242;SDS011;18731;42.830;24.390;2023-04-03T07:50:20;5.45;;;3.65;;
32242;SDS011;18731;42.830;24.390;2023-04-03T07:52:46;4.45;;;2.80;;
32242;SDS011;18731;42.830;24.390;2023-04-03T07:55:12;4.35;;;2.83;;
32242;SDS011;18731;42.830;24.390;2023-04-03T07:57:38;4.55;;;2.60;;
32242;SDS011;18731;42.830;24.390;2023-04-03T08:00:04;4.18;;;2.40;;
32242;SDS011;18731;42.830;24.390;2023-04-03T08:02:30;4.10;;;2.60;;
32242;SDS011;18731;42.830;24.390;2023-04-03T08:05:00;3.65;;;2.50;;
32242;SDS011;18731;42.830;24.390;2023-04-03T08:07:25;19.25;;;8.80;;
32242;SDS011;18731;42.830;24.390;2023-04-03T08:09:51;7.97;;;4.43;;
32242;SDS011;18731;42.830;24.390;2023-04-03T08:12:17;2.95;;;1.90;;
32242;SDS011;18731;42.830;24.390;2023-04-03T08:14:43;3.88;;;2.08;;
32242;SDS011;18731;42.830;24.390;2023-04-03T08:17:09;2.90;;;2.08;;
32242;SDS011;18731;42.830;24.390;2023-04-03T08:19:39;9.43;;;2.13;;
32242;SDS011;18731;42.830;24.390;2023-04-03T08:22:05;2.65;;;1.70;;
32242;SDS011;18731;42.830;24.390;2023-04-03T08:24:32;2.45;;;1.70;;
32242;SDS011;18731;42.830;24.390;2023-04-03T08:26:58;3.03;;;1.45;;
32242;SDS011;18731;42.830;24.390;2023-04-03T08:29:24;3.90;;;2.15;;
32242;SDS011;18731;42.830;24.390;2023-04-03T08:31:50;4.53;;;2.22;;
32242;SDS011;18731;42.830;24.390;2023-04-03T08:34:16;3.90;;;1.85;;
32242;SDS011;18731;42.830;24.390;2023-04-03T08:36:43;2.45;;;1.58;;
32242;SDS011;18731;42.830;24.390;2023-04-03T08:39:08;5.15;;;2.00;;
32242;SDS011;18731;42.830;24.390;2023-04-03T08:41:37;3.28;;;2.00;;
32242;SDS011;18731;42.830;24.390;2023-04-03T08:44:24;2.97;;;2.00;;
32242;SDS011;18731;42.830;24.390;2023-04-03T08:49:43;3.22;;;2.03;;
32242;SDS011;18731;42.830;24.390;2023-04-03T08:52:20;3.10;;;1.90;;
32242;SDS011;18731;42.830;24.390;2023-04-03T08:54:52;3.45;;;1.52;;
32242;SDS011;18731;42.830;24.390;2023-04-03T08:57:26;2.10;;;1.35;;
32242;SDS011;18731;42.830;24.390;2023-04-03T08:59:56;2.35;;;1.05;;
32242;SDS011;18731;42.830;24.390;2023-04-03T09:02:28;7.57;;;1.20;;
32242;SDS011;18731;42.830;24.390;2023-04-03T09:04:58;4.72;;;1.27;;
32242;SDS011;18731;42.830;24.390;2023-04-03T09:07:32;1.70;;;1.40;;
32242;SDS011;18731;42.830;24.390;2023-04-03T09:10:03;1.65;;;0.90;;
32242;SDS011;18731;42.830;24.390;2023-04-03T09:12:41;0.75;;;0.75;;
32242;SDS011;18731;42.830;24.390;2023-04-03T09:15:22;1.52;;;0.85;;
32242;SDS011;18731;42.830;24.390;2023-04-03T09:18:03;1.00;;;0.80;;
32242;SDS011;18731;42.830;24.390;2023-04-03T09:26:04;1.35;;;1.10;;
32242;SDS011;18731;42.830;24.390;2023-04-03T09:28:35;1.38;;;1.00;;
32242;SDS011;18731;42.830;24.390;2023-04-03T09:31:23;1.75;;;1.10;;
32242;SDS011;18731;42.830;24.390;2023-04-03T09:33:55;0.90;;;0.80;;
32242;SDS011;18731;42.830;24.390;2023-04-03T09:36:45;1.45;;;0.80;;
32242;SDS011;18731;42.830;24.390;2023-04-03T09:39:17;1.30;;;1.10;;
32242;SDS011;18731;42.830;24.390;2023-04-03T09:42:03;1.17;;;1.00;;
32242;SDS011;18731;42.830;24.390;2023-04-03T09:44:54;3.13;;;1.08;;
32242;SDS011;18731;42.830;24.390;2023-04-03T09:47:28;2.38;;;0.80;;
32242;SDS011;18731;42.830;24.390;2023-04-03T09:52:40;2.28;;;1.00;;
32242;SDS011;18731;42.830;24.390;2023-04-03T09:55:14;1.33;;;1.00;;
32242;SDS011;18731;42.830;24.390;2023-04-03T09:57:57;0.80;;;0.80;;
32242;SDS011;18731;42.830;24.390;2023-04-03T10:00:42;1.30;;;0.73;;
32242;SDS011;18731;42.830;24.390;2023-04-03T10:03:23;2.13;;;1.00;;
32242;SDS011;18731;42.830;24.390;2023-04-03T10:05:53;1.45;;;0.98;;
32242;SDS011;18731;42.830;24.390;2023-04-03T10:08:22;1.80;;;1.20;;
32242;SDS011;18731;42.830;24.390;2023-04-03T10:11:05;0.98;;;0.80;;
32242;SDS011;18731;42.830;24.390;2023-04-03T10:13:35;1.70;;;1.25;;
32242;SDS011;18731;42.830;24.390;2023-04-03T10:16:08;2.53;;;1.20;;
32242;SDS011;18731;42.830;24.390;2023-04-03T10:18:58;2.03;;;1.30;;
32242;SDS011;18731;42.830;24.390;2023-04-03T10:21:39;6.30;;;1.40;;
32242;SDS011;18731;42.830;24.390;2023-04-03T10:24:21;1.92;;;1.10;;
32242;SDS011;18731;42.830;24.390;2023-04-03T10:34:50;2.00;;;1.50;;
32242;SDS011;18731;42.830;24.390;2023-04-03T10:37:35;2.45;;;1.55;;
32242;SDS011;18731;42.830;24.390;2023-04-03T10:43:04;2.17;;;1.35;;
32242;SDS011;18731;42.830;24.390;2023-04-03T10:53:57;4.50;;;2.55;;
32242;SDS011;18731;42.830;24.390;2023-04-03T11:01:42;2.25;;;1.48;;
32242;SDS011;18731;42.830;24.390;2023-04-03T11:04:10;3.33;;;2.00;;
32242;SDS011;18731;42.830;24.390;2023-04-03T11:06:49;2.03;;;1.35;;
32242;SDS011;18731;42.830;24.390;2023-04-03T11:09:27;1.55;;;1.30;;
32242;SDS011;18731;42.830;24.390;2023-04-03T11:12:01;2.40;;;1.38;;
32242;SDS011;18731;42.830;24.390;2023-04-03T11:14:37;3.05;;;1.40;;
32242;SDS011;18731;42.830;24.390;2023-04-03T11:19:45;4.40;;;1.10;;
32242;SDS011;18731;42.830;24.390;2023-04-03T11:24:46;5.90;;;2.60;;
32242;SDS011;18731;42.830;24.390;2023-04-03T11:27:22;5.80;;;3.15;;
32242;SDS011;18731;42.830;24.390;2023-04-03T11:29:50;5.47;;;2.78;;
32242;SDS011;18731;42.830;24.390;2023-04-03T11:35:25;2.28;;;1.73;;
32242;SDS011;18731;42.830;24.390;2023-04-03T11:37:52;1.92;;;1.70;;
32242;SDS011;18731;42.830;24.390;2023-04-03T11:40:21;2.35;;;1.63;;
32242;SDS011;18731;42.830;24.390;2023-04-03T11:42:55;2.92;;;1.70;;
32242;SDS011;18731;42.830;24.390;2023-04-03T11:45:32;1.88;;;1.20;;
32242;SDS011;18731;42.830;24.390;2023-04-03T11:50:52;2.40;;;1.85;;
32242;SDS011;18731;42.830;24.390;2023-04-03T11:58:21;3.92;;;2.03;;
32242;SDS011;18731;42.830;24.390;2023-04-03T12:00:52;3.50;;;1.48;;
32242;SDS011;18731;42.830;24.390;2023-04-03T12:05:49;4.20;;;2.08;;
32242;SDS011;18731;42.830;24.390;2023-04-03T12:08:21;10.10;;;3.92;;
32242;SDS011;18731;42.830;24.390;2023-04-03T12:18:57;11.20;;;3.05;;
32242;SDS011;18731;42.830;24.390;2023-04-03T12:41:38;3.70;;;1.95;;
32242;SDS011;18731;42.830;24.390;2023-04-03T12:46:44;4.35;;;1.92;;
32242;SDS011;18731;42.830;24.390;2023-04-03T12:49:33;5.53;;;2.45;;
32242;SDS011;18731;42.830;24.390;2023-04-03T12:52:01;3.10;;;1.58;;
32242;SDS011;18731;42.830;24.390;2023-04-03T12:54:37;5.90;;;2.80;;
32242;SDS011;18731;42.830;24.390;2023-04-03T12:59:40;2.38;;;1.85;;
32242;SDS011;18731;42.830;24.390;2023-04-03T13:04:58;4.13;;;1.80;;
32242;SDS011;18731;42.830;24.390;2023-04-03T13:07:31;2.53;;;1.65;;
32242;SDS011;18731;42.830;24.390;2023-04-03T13:12:31;2.90;;;1.70;;
32242;SDS011;18731;42.830;24.390;2023-04-03T13:14:59;2.45;;;1.67;;
32242;SDS011;18731;42.830;24.390;2023-04-03T13:17:28;1.98;;;1.77;;
32242;SDS011;18731;42.830;24.390;2023-04-03T13:19:54;4.22;;;2.60;;
32242;SDS011;18731;42.830;24.390;2023-04-03T13:22:25;6.65;;;4.68;;
32242;SDS011;18731;42.830;24.390;2023-04-03T13:25:09;3.38;;;1.95;;
32242;SDS011;18731;42.830;24.390;2023-04-03T13:27:38;2.85;;;1.70;;
32242;SDS011;18731;42.830;24.390;2023-04-03T13:30:29;2.63;;;1.70;;
32242;SDS011;18731;42.830;24.390;2023-04-03T13:32:58;3.05;;;1.80;;
32242;SDS011;18731;42.830;24.390;2023-04-03T13:35:32;2.65;;;1.85;;
32242;SDS011;18731;42.830;24.390;2023-04-03T13:38:21;1.88;;;1.30;;
32242;SDS011;18731;42.830;24.390;2023-04-03T13:43:21;1.80;;;1.45;;
32242;SDS011;18731;42.830;24.390;2023-04-03T13:45:53;6.88;;;3.05;;
32242;SDS011;18731;42.830;24.390;2023-04-03T13:48:37;14.07;;;9.60;;
32242;SDS011;18731;42.830;24.390;2023-04-03T13:51:07;12.77;;;9.38;;
32242;SDS011;18731;42.830;24.390;2023-04-03T13:53:55;12.60;;;8.18;;
32242;SDS011;18731;42.830;24.390;2023-04-03T13:56:31;10.43;;;6.28;;
32242;SDS011;18731;42.830;24.390;2023-04-03T14:06:45;6.25;;;2.28;;
32242;SDS011;18731;42.830;24.390;2023-04-03T14:09:11;4.10;;;2.78;;
32242;SDS011;18731;42.830;24.390;2023-04-03T14:11:38;11.07;;;5.90;;
32242;SDS011;18731;42.830;24.390;2023-04-03T14:14:09;9.55;;;6.20;;
32242;SDS011;18731;42.830;24.390;2023-04-03T14:16:48;5.70;;;4.38;;
32242;SDS011;18731;42.830;24.390;2023-04-03T14:19:19;7.35;;;5.10;;
32242;SDS011;18731;42.830;24.390;2023-04-03T14:21:53;8.25;;;5.40;;
32242;SDS011;18731;42.830;24.390;2023-04-03T14:24:20;12.40;;;6.30;;
32242;SDS011;18731;42.830;24.390;2023-04-03T14:26:47;10.95;;;6.75;;
32242;SDS011;18731;42.830;24.390;2023-04-03T14:29:14;10.50;;;6.40;;
32242;SDS011;18731;42.830;24.390;2023-04-03T14:31:42;9.57;;;7.22;;
32242;SDS011;18731;42.830;24.390;2023-04-03T14:34:12;12.73;;;7.18;;
32242;SDS011;18731;42.830;24.390;2023-04-03T14:36:40;9.80;;;7.30;;
32242;SDS011;18731;42.830;24.390;2023-04-03T14:39:10;10.73;;;7.25;;
32242;SDS011;18731;42.830;24.390;2023-04-03T14:41:41;11.02;;;7.72;;
32242;SDS011;18731;42.830;24.390;2023-04-03T14:44:07;14.15;;;8.23;;
32242;SDS011;18731;42.830;24.390;2023-04-03T14:46:38;11.25;;;7.55;;
32242;SDS011;18731;42.830;24.390;2023-04-03T14:49:12;27.83;;;15.82;;
32242;SDS011;18731;42.830;24.390;2023-04-03T14:51:41;24.60;;;14.98;;
32242;SDS011;18731;42.830;24.390;2023-04-03T14:54:11;18.42;;;9.70;;
32242;SDS011;18731;42.830;24.390;2023-04-03T14:56:44;7.63;;;4.85;;
32242;SDS011;18731;42.830;24.390;2023-04-03T14:59:11;7.78;;;4.95;;
32242;SDS011;18731;42.830;24.390;2023-04-03T15:01:38;10.73;;;5.55;;
32242;SDS011;18731;42.830;24.390;2023-04-03T15:04:09;5.80;;;3.33;;
32242;SDS011;18731;42.830;24.390;2023-04-03T15:06:37;4.28;;;3.00;;
32242;SDS011;18731;42.830;24.390;2023-04-03T15:09:02;8.18;;;3.13;;
32242;SDS011;18731;42.830;24.390;2023-04-03T15:11:28;6.43;;;3.53;;
32242;SDS011;18731;42.830;24.390;2023-04-03T15:13:54;8.00;;;5.35;;
32242;SDS011;18731;42.830;24.390;2023-04-03T15:16:20;8.10;;;4.47;;
32242;SDS011;18731;42.830;24.390;2023-04-03T15:18:46;6.07;;;3.95;;
32242;SDS011;18731;42.830;24.390;2023-04-03T15:21:13;7.10;;;3.60;;
32242;SDS011;18731;42.830;24.390;2023-04-03T15:23:39;13.45;;;4.22;;
32242;SDS011;18731;42.830;24.390;2023-04-03T15:26:05;6.32;;;3.85;;
32242;SDS011;18731;42.830;24.390;2023-04-03T15:28:35;6.00;;;3.25;;
32242;SDS011;18731;42.830;24.390;2023-04-03T15:31:04;7.63;;;3.58;;
32242;SDS011;18731;42.830;24.390;2023-04-03T15:33:31;8.70;;;6.07;;
32242;SDS011;18731;42.830;24.390;2023-04-03T15:35:57;7.22;;;3.65;;
32242;SDS011;18731;42.830;24.390;2023-04-03T15:38:23;5.55;;;3.33;;
32242;SDS011;18731;42.830;24.390;2023-04-03T15:40:49;5.82;;;3.83;;
32242;SDS011;18731;42.830;24.390;2023-04-03T15:43:15;8.07;;;4.43;;
32242;SDS011;18731;42.830;24.390;2023-04-03T15:45:41;4.38;;;2.63;;
32242;SDS011;18731;42.830;24.390;2023-04-03T15:48:08;3.97;;;2.65;;
32242;SDS011;18731;42.830;24.390;2023-04-03T15:50:35;4.97;;;2.92;;
32242;SDS011;18731;42.830;24.390;2023-04-03T15:53:00;6.32;;;3.65;;
32242;SDS011;18731;42.830;24.390;2023-04-03T15:55:28;11.73;;;5.88;;
32242;SDS011;18731;42.830;24.390;2023-04-03T15:57:55;8.32;;;4.55;;
32242;SDS011;18731;42.830;24.390;2023-04-03T16:00:21;9.13;;;4.93;;
32242;SDS011;18731;42.830;24.390;2023-04-03T16:02:48;11.02;;;6.00;;
32242;SDS011;18731;42.830;24.390;2023-04-03T16:05:17;14.88;;;6.70;;
32242;SDS011;18731;42.830;24.390;2023-04-03T16:07:44;15.43;;;7.13;;
32242;SDS011;18731;42.830;24.390;2023-04-03T16:10:11;7.10;;;4.32;;
32242;SDS011;18731;42.830;24.390;2023-04-03T16:12:39;9.63;;;4.13;;
32242;SDS011;18731;42.830;24.390;2023-04-03T16:15:05;8.02;;;4.30;;
32242;SDS011;18731;42.830;24.390;2023-04-03T16:17:32;7.72;;;4.20;;
32242;SDS011;18731;42.830;24.390;2023-04-03T16:20:00;9.45;;;4.20;;
32242;SDS011;18731;42.830;24.390;2023-04-03T16:22:28;5.30;;;3.42;;
32242;SDS011;18731;42.830;24.390;2023-04-03T16:24:54;5.60;;;3.20;;
32242;SDS011;18731;42.830;24.390;2023-04-03T16:27:20;9.13;;;4.80;;
32242;SDS011;18731;42.830;24.390;2023-04-03T16:29:47;10.23;;;4.60;;
32242;SDS011;18731;42.830;24.390;2023-04-03T16:32:13;9.85;;;5.32;;
32242;SDS011;18731;42.830;24.390;2023-04-03T16:34:39;15.30;;;5.68;;
32242;SDS011;18731;42.830;24.390;2023-04-03T16:37:05;11.65;;;5.45;;
32242;SDS011;18731;42.830;24.390;2023-04-03T16:39:34;17.60;;;9.25;;
32242;SDS011;18731;42.830;24.390;2023-04-03T16:42:00;20.40;;;12.48;;
32242;SDS011;18731;42.830;24.390;2023-04-03T16:44:26;12.40;;;7.07;;
32242;SDS011;18731;42.830;24.390;2023-04-03T16:46:51;12.23;;;6.43;;
32242;SDS011;18731;42.830;24.390;2023-04-03T16:49:17;15.27;;;7.78;;
32242;SDS011;18731;42.830;24.390;2023-04-03T16:51:43;10.95;;;5.63;;
32242;SDS011;18731;42.830;24.390;2023-04-03T16:54:09;11.45;;;5.30;;
32242;SDS011;18731;42.830;24.390;2023-04-03T16:56:36;8.73;;;4.13;;
32242;SDS011;18731;42.830;24.390;2023-04-03T16:59:02;8.35;;;4.32;;
32242;SDS011;18731;42.830;24.390;2023-04-03T17:01:28;9.50;;;4.18;;
32242;SDS011;18731;42.830;24.390;2023-04-03T17:03:53;11.40;;;5.70;;
32242;SDS011;18731;42.830;24.390;2023-04-03T17:06:20;11.95;;;5.00;;
32242;SDS011;18731;42.830;24.390;2023-04-03T17:08:48;9.43;;;5.05;;
32242;SDS011;18731;42.830;24.390;2023-04-03T17:11:15;9.40;;;4.70;;
32242;SDS011;18731;42.830;24.390;2023-04-03T17:13:41;10.00;;;4.88;;
32242;SDS011;18731;42.830;24.390;2023-04-03T17:16:08;10.10;;;3.88;;
32242;SDS011;18731;42.830;24.390;2023-04-03T17:18:36;7.90;;;3.60;;
32242;SDS011;18731;42.830;24.390;2023-04-03T17:21:02;7.18;;;3.05;;
32242;SDS011;18731;42.830;24.390;2023-04-03T17:23:29;6.88;;;3.30;;
32242;SDS011;18731;42.830;24.390;2023-04-03T17:25:55;6.20;;;2.58;;
32242;SDS011;18731;42.830;24.390;2023-04-03T17:28:21;5.00;;;2.90;;
32242;SDS011;18731;42.830;24.390;2023-04-03T17:30:53;5.72;;;2.92;;
32242;SDS011;18731;42.830;24.390;2023-04-03T17:33:20;4.88;;;2.75;;
32242;SDS011;18731;42.830;24.390;2023-04-03T17:35:45;8.27;;;2.60;;
32242;SDS011;18731;42.830;24.390;2023-04-03T17:38:11;4.53;;;2.30;;
32242;SDS011;18731;42.830;24.390;2023-04-03T17:40:37;5.65;;;3.20;;
32242;SDS011;18731;42.830;24.390;2023-04-03T17:43:03;7.18;;;2.90;;
32242;SDS011;18731;42.830;24.390;2023-04-03T17:45:28;4.13;;;2.42;;
32242;SDS011;18731;42.830;24.390;2023-04-03T17:47:54;3.95;;;2.70;;
32242;SDS011;18731;42.830;24.390;2023-04-03T17:50:20;6.32;;;2.88;;
32242;SDS011;18731;42.830;24.390;2023-04-03T17:52:45;5.13;;;3.08;;
32242;SDS011;18731;42.830;24.390;2023-04-03T17:55:11;4.38;;;2.75;;
32242;SDS011;18731;42.830;24.390;2023-04-03T17:57:39;3.33;;;1.95;;
32242;SDS011;18731;42.830;24.390;2023-04-03T18:00:07;3.38;;;2.40;;
32242;SDS011;18731;42.830;24.390;2023-04-03T18:02:33;3.20;;;1.90;;
32242;SDS011;18731;42.830;24.390;2023-04-03T18:04:59;3.92;;;2.25;;
32242;SDS011;18731;42.830;24.390;2023-04-03T18:07:24;5.53;;;1.70;;
32242;SDS011;18731;42.830;24.390;2023-04-03T18:09:52;2.85;;;2.05;;
32242;SDS011;18731;42.830;24.390;2023-04-03T18:12:18;5.47;;;2.10;;
32242;SDS011;18731;42.830;24.390;2023-04-03T18:14:44;7.55;;;2.50;;
32242;SDS011;18731;42.830;24.390;2023-04-03T18:17:11;5.55;;;2.42;;
32242;SDS011;18731;42.830;24.390;2023-04-03T18:19:37;3.70;;;1.83;;
32242;SDS011;18731;42.830;24.390;2023-04-03T18:22:03;8.13;;;2.60;;
32242;SDS011;18731;42.830;24.390;2023-04-03T18:24:36;3.20;;;2.10;;
32242;SDS011;18731;42.830;24.390;2023-04-03T18:27:08;2.78;;;1.75;;
32242;SDS011;18731;42.830;24.390;2023-04-03T18:29:37;2.70;;;2.10;;
32242;SDS011;18731;42.830;24.390;2023-04-03T18:32:05;3.47;;;2.03;;
32242;SDS011;18731;42.830;24.390;2023-04-03T18:34:34;3.15;;;2.00;;
32242;SDS011;18731;42.830;24.390;2023-04-03T18:37:00;2.80;;;2.45;;
32242;SDS011;18731;42.830;24.390;2023-04-03T18:39:27;4.38;;;1.77;;
32242;SDS011;18731;42.830;24.390;2023-04-03T18:41:54;4.38;;;2.20;;
32242;SDS011;18731;42.830;24.390;2023-04-03T18:44:22;3.78;;;2.38;;
32242;SDS011;18731;42.830;24.390;2023-04-03T18:46:50;4.32;;;2.92;;
32242;SDS011;18731;42.830;24.390;2023-04-03T18:49:17;2.78;;;1.80;;
32242;SDS011;18731;42.830;24.390;2023-04-03T18:51:44;5.82;;;2.60;;
32242;SDS011;18731;42.830;24.390;2023-04-03T18:54:11;2.80;;;1.65;;
32242;SDS011;18731;42.830;24.390;2023-04-03T18:56:36;6.50;;;1.70;;
32242;SDS011;18731;42.830;24.390;2023-04-03T18:59:02;4.57;;;1.95;;
32242;SDS011;18731;42.830;24.390;2023-04-03T19:01:29;4.30;;;2.00;;
32242;SDS011;18731;42.830;24.390;2023-04-03T19:03:55;29.40;;;2.45;;
32242;SDS011;18731;42.830;24.390;2023-04-03T19:06:20;3.15;;;2.40;;
32242;SDS011;18731;42.830;24.390;2023-04-03T19:08:47;4.28;;;2.70;;
32242;SDS011;18731;42.830;24.390;2023-04-03T19:11:14;3.13;;;2.20;;
32242;SDS011;18731;42.830;24.390;2023-04-03T19:13:40;2.90;;;2.30;;
32242;SDS011;18731;42.830;24.390;2023-04-03T19:16:06;8.35;;;3.47;;
32242;SDS011;18731;42.830;24.390;2023-04-03T19:18:32;6.43;;;4.03;;
32242;SDS011;18731;42.830;24.390;2023-04-03T19:20:57;7.05;;;3.97;;
32242;SDS011;18731;42.830;24.390;2023-04-03T19:23:24;6.13;;;3.72;;
32242;SDS011;18731;42.830;24.390;2023-04-03T19:26:00;7.15;;;4.40;;